createdAt,value
2018-06-10T00:00:49.359Z,99.90
2018-06-10T00:03:18.276Z,99.90
2018-06-10T00:05:47.161Z,99.90
2018-06-10T00:08:16.117Z,99.90
2018-06-10T00:10:45.017Z,99.90
2018-06-10T00:13:13.911Z,99.90
2018-06-10T00:15:42.826Z,99.90
2018-06-10T00:18:11.859Z,99.90
2018-06-10T00:20:40.786Z,99.90
2018-06-10T00:23:09.700Z,99.90
2018-06-10T00:25:38.659Z,99.90
2018-06-10T00:28:07.550Z,99.90
2018-06-10T00:30:36.461Z,99.90
2018-06-10T00:33:05.629Z,99.90
2018-06-10T00:35:34.541Z,99.90
2018-06-10T00:38:03.431Z,99.90
2018-06-10T00:40:32.355Z,99.90
2018-06-10T00:43:01.275Z,99.90
2018-06-10T00:45:30.183Z,99.90
2018-06-10T00:47:59.083Z,99.90
2018-06-10T00:50:28.000Z,99.90
2018-06-10T00:52:56.882Z,99.90
2018-06-10T00:55:25.792Z,99.90
2018-06-10T00:57:54.682Z,99.90
2018-06-10T01:00:23.601Z,99.90
2018-06-10T01:02:52.499Z,99.90
2018-06-10T01:05:21.407Z,99.90
2018-06-10T01:07:50.327Z,99.90
2018-06-10T01:12:47.791Z,99.90
2018-06-10T01:15:16.707Z,99.90
2018-06-10T01:17:45.602Z,99.90
2018-06-10T01:20:14.502Z,99.90
2018-06-10T01:22:43.398Z,99.90
2018-06-10T01:25:12.304Z,99.90
2018-06-10T01:27:41.630Z,99.90
2018-06-10T01:30:10.529Z,99.90
2018-06-10T01:32:39.715Z,99.90
2018-06-10T01:35:08.612Z,99.90
2018-06-10T01:37:37.512Z,99.90
2018-06-10T01:40:06.407Z,99.90
2018-06-10T01:42:35.576Z,99.90
2018-06-10T01:45:04.436Z,99.90
2018-06-10T01:47:33.515Z,99.90
2018-06-10T01:50:02.411Z,99.90
2018-06-10T01:52:31.494Z,99.90
2018-06-10T01:55:00.394Z,99.90
2018-06-10T01:57:29.303Z,99.90
2018-06-10T01:59:58.182Z,99.90
2018-06-10T02:02:27.095Z,99.90
2018-06-10T02:04:55.972Z,99.90
2018-06-10T02:07:24.919Z,99.90
2018-06-10T02:09:53.818Z,99.90
2018-06-10T02:12:22.742Z,99.90
2018-06-10T02:14:52.139Z,99.90
2018-06-10T02:17:21.243Z,99.90
2018-06-10T02:19:50.555Z,99.90
2018-06-10T02:22:19.474Z,99.90
2018-06-10T02:24:48.370Z,99.90
2018-06-10T02:27:17.299Z,99.90
2018-06-10T02:29:46.220Z,99.90
2018-06-10T02:32:15.132Z,99.90
2018-06-10T02:34:44.030Z,99.90
2018-06-10T02:37:12.939Z,99.90
2018-06-10T02:39:41.824Z,99.90
2018-06-10T02:42:10.742Z,99.90
2018-06-10T02:44:39.637Z,99.90
2018-06-10T02:47:08.530Z,99.90
2018-06-10T02:49:37.418Z,99.90
2018-06-10T02:52:06.327Z,99.90
2018-06-10T02:54:35.211Z,99.90
2018-06-10T02:57:04.151Z,99.90
2018-06-10T02:59:33.034Z,99.90
2018-06-10T03:02:01.980Z,99.90
2018-06-10T03:04:30.892Z,99.90
2018-06-10T03:06:59.815Z,99.90
2018-06-10T03:09:28.690Z,99.90
2018-06-10T03:11:57.608Z,99.90
2018-06-10T03:14:26.924Z,99.90
2018-06-10T03:16:55.828Z,99.90
2018-06-10T03:19:24.725Z,99.90
2018-06-10T03:21:53.620Z,99.90
2018-06-10T03:24:22.512Z,99.90
2018-06-10T03:26:51.435Z,99.90
2018-06-10T03:29:20.326Z,99.90
2018-06-10T03:31:49.227Z,99.90
2018-06-10T03:34:18.112Z,99.90
2018-06-10T03:36:47.010Z,99.90
2018-06-10T03:39:15.899Z,99.90
2018-06-10T03:41:44.814Z,99.90
2018-06-10T03:44:13.707Z,99.90
2018-06-10T03:49:11.155Z,99.90
2018-06-10T03:51:40.040Z,99.90
2018-06-10T03:54:08.938Z,99.90
2018-06-10T03:56:37.823Z,99.90
2018-06-10T03:59:06.726Z,99.90
2018-06-10T04:01:35.626Z,99.90
2018-06-10T04:04:11.058Z,99.90
2018-06-10T04:06:39.964Z,99.90
2018-06-10T04:09:08.858Z,99.90
2018-06-10T04:11:37.746Z,99.90
2018-06-10T04:16:35.191Z,99.90
2018-06-10T04:19:04.096Z,99.90
2018-06-10T04:24:01.536Z,99.90
2018-06-10T04:26:30.443Z,99.90
2018-06-10T04:28:59.418Z,99.90
2018-06-10T04:31:28.316Z,99.90
2018-06-10T04:33:57.388Z,99.90
2018-06-10T04:36:26.296Z,99.90
2018-06-10T04:38:55.174Z,99.90
2018-06-10T04:41:24.061Z,99.90
2018-06-10T04:43:52.951Z,99.90
2018-06-10T04:46:21.830Z,99.90
2018-06-10T04:48:50.756Z,99.90
2018-06-10T04:51:19.647Z,99.90
2018-06-10T04:53:48.547Z,99.90
2018-06-10T04:56:17.422Z,99.90
2018-06-10T04:58:46.327Z,99.90
2018-06-10T05:01:15.209Z,99.90
2018-06-10T05:03:44.107Z,99.90
2018-06-10T05:06:12.978Z,99.90
2018-06-10T05:08:41.918Z,99.90
2018-06-10T05:11:10.802Z,99.90
2018-06-10T05:13:39.707Z,99.90
2018-06-10T05:16:08.683Z,99.90
2018-06-10T05:18:37.591Z,99.90
2018-06-10T05:21:06.479Z,99.90
2018-06-10T05:23:35.379Z,99.90
2018-06-10T05:26:04.302Z,99.90
2018-06-10T05:31:01.812Z,99.90
2018-06-10T05:33:30.703Z,99.90
2018-06-10T05:35:59.618Z,99.90
2018-06-10T05:38:28.502Z,99.90
2018-06-10T05:40:57.413Z,99.90
2018-06-10T05:43:26.352Z,99.90
2018-06-10T05:45:55.415Z,99.90
2018-06-10T05:48:24.302Z,99.90
2018-06-10T05:50:53.246Z,99.90
2018-06-10T05:53:22.134Z,99.90
2018-06-10T05:55:51.104Z,99.90
2018-06-10T05:58:20.002Z,99.90
2018-06-10T06:00:48.965Z,99.90
2018-06-10T06:03:17.939Z,99.90
2018-06-10T06:05:46.982Z,99.90
2018-06-10T06:08:15.940Z,99.90
2018-06-10T06:10:44.916Z,99.90
2018-06-10T06:13:13.798Z,99.90
2018-06-10T06:15:42.874Z,99.90
2018-06-10T06:18:11.794Z,99.90
2018-06-10T06:20:40.779Z,99.90
2018-06-10T06:23:09.731Z,99.90
2018-06-10T06:25:38.628Z,99.90
2018-06-10T06:28:07.763Z,99.90
2018-06-10T06:30:36.971Z,99.90
2018-06-10T06:33:05.865Z,99.90
2018-06-10T06:35:34.762Z,99.90
2018-06-10T06:38:04.884Z,99.90
2018-06-10T06:40:35.230Z,99.90
2018-06-10T06:43:04.367Z,99.90
2018-06-10T06:45:33.970Z,99.90
2018-06-10T06:48:03.187Z,99.90
2018-06-10T06:50:32.767Z,99.90
2018-06-10T06:53:02.004Z,99.90
2018-06-10T06:55:30.902Z,99.90
2018-06-10T06:57:59.853Z,99.90
2018-06-10T07:00:28.682Z,99.90
2018-06-10T07:02:57.586Z,99.90
2018-06-10T07:05:26.490Z,99.90
2018-06-10T07:07:55.470Z,99.90
2018-06-10T07:10:24.357Z,99.90
2018-06-10T07:12:53.261Z,99.90
2018-06-10T07:15:22.146Z,99.90
2018-06-10T07:17:51.522Z,99.90
2018-06-10T07:20:21.542Z,99.90
2018-06-10T07:22:50.794Z,99.90
2018-06-10T07:25:20.137Z,99.90
2018-06-10T07:27:49.310Z,99.90
2018-06-10T07:30:19.319Z,99.90
2018-06-10T07:32:48.746Z,99.90
2018-06-10T07:35:18.607Z,99.90
2018-06-10T07:37:47.840Z,99.90
2018-06-10T07:40:16.750Z,99.90
2018-06-10T07:42:45.655Z,99.90
2018-06-10T07:45:14.783Z,99.90
2018-06-10T07:47:43.690Z,99.90
2018-06-10T07:50:12.603Z,99.90
2018-06-10T07:52:41.502Z,99.90
2018-06-10T07:55:10.399Z,99.90
2018-06-10T07:57:39.279Z,99.90
2018-06-10T08:00:08.211Z,99.90
2018-06-10T08:02:37.126Z,99.90
2018-06-10T08:05:06.185Z,99.90
2018-06-10T08:07:35.106Z,99.90
2018-06-10T08:10:04.395Z,99.90
2018-06-10T08:12:33.287Z,99.90
2018-06-10T08:15:02.195Z,99.90
2018-06-10T08:19:07.003Z,99.90
2018-06-10T08:21:36.904Z,99.90
2018-06-10T08:24:09.060Z,99.90
2018-06-10T08:26:37.949Z,99.90
2018-06-10T08:29:06.851Z,99.90
2018-06-10T08:31:37.421Z,99.90
2018-06-10T08:34:07.949Z,99.90
2018-06-10T08:36:36.898Z,99.90
2018-06-10T08:39:07.991Z,99.90
2018-06-10T08:41:36.902Z,99.90
2018-06-10T08:44:06.199Z,99.90
2018-06-10T08:46:35.075Z,99.90
2018-06-10T08:49:04.966Z,99.90
2018-06-10T08:51:33.870Z,99.90
2018-06-10T08:54:02.755Z,99.90
2018-06-10T08:56:31.667Z,99.90
2018-06-10T08:59:00.542Z,99.90
2018-06-10T09:01:29.439Z,99.90
2018-06-10T09:03:58.322Z,99.90
2018-06-10T09:06:27.231Z,99.90
2018-06-10T09:08:56.170Z,99.90
2018-06-10T09:11:25.053Z,99.90
2018-06-10T09:13:53.948Z,99.90
2018-06-10T09:16:22.847Z,99.90
2018-06-10T09:18:52.007Z,99.90
2018-06-10T09:21:20.901Z,99.90
2018-06-10T09:23:49.798Z,99.90
2018-06-10T09:26:18.694Z,99.90
2018-06-10T09:28:47.630Z,99.90
2018-06-10T09:31:16.494Z,99.90
2018-06-10T09:33:45.381Z,99.90
2018-06-10T09:36:14.279Z,99.90
2018-06-10T09:38:43.170Z,99.90
2018-06-10T09:41:12.134Z,99.90
2018-06-10T09:43:41.156Z,99.90
2018-06-10T09:46:10.063Z,99.90
2018-06-10T09:48:38.963Z,99.90
2018-06-10T09:51:07.851Z,99.90
2018-06-10T09:53:36.753Z,99.90
2018-06-10T09:56:05.630Z,99.90
2018-06-10T09:58:34.526Z,99.90
2018-06-10T10:01:03.423Z,99.90
2018-06-10T10:03:32.314Z,99.90
2018-06-10T10:06:01.211Z,99.90
2018-06-10T10:08:30.135Z,99.90
2018-06-10T10:10:59.027Z,99.90
2018-06-10T10:13:27.917Z,99.90
2018-06-10T10:15:56.808Z,99.90
2018-06-10T10:18:25.827Z,99.90
2018-06-10T10:20:55.104Z,99.90
2018-06-10T10:23:24.016Z,99.90
2018-06-10T10:25:52.898Z,99.90
2018-06-10T10:28:21.799Z,99.90
2018-06-10T10:30:50.680Z,99.90
2018-06-10T10:33:19.574Z,99.90
2018-06-10T10:35:48.540Z,99.90
2018-06-10T10:38:17.454Z,99.90
2018-06-10T10:40:46.315Z,99.90
2018-06-10T10:43:15.210Z,99.90
2018-06-10T10:45:44.098Z,99.90
2018-06-10T10:48:13.006Z,99.90
2018-06-10T10:50:41.891Z,99.90
2018-06-10T10:53:10.807Z,99.90
2018-06-10T10:55:39.686Z,99.90
2018-06-10T10:58:08.588Z,99.90
2018-06-10T11:00:37.472Z,99.90
2018-06-10T11:03:06.372Z,99.90
2018-06-10T11:05:35.249Z,99.90
2018-06-10T11:08:04.176Z,99.90
2018-06-10T11:10:33.046Z,99.90
2018-06-10T11:13:01.961Z,99.90
2018-06-10T11:15:30.846Z,99.90
2018-06-10T11:17:59.762Z,99.90
2018-06-10T11:20:28.725Z,99.90
2018-06-10T11:22:57.618Z,99.90
2018-06-10T11:25:26.514Z,99.90
2018-06-10T11:27:55.409Z,99.90
2018-06-10T11:30:24.296Z,99.90
2018-06-10T11:32:53.210Z,99.90
2018-06-10T11:35:22.088Z,99.90
2018-06-10T11:37:50.963Z,99.90
2018-06-10T11:40:19.862Z,99.90
2018-06-10T11:42:48.742Z,99.90
2018-06-10T11:45:17.642Z,99.90
2018-06-10T11:47:46.526Z,99.90
2018-06-10T11:50:15.414Z,99.90
2018-06-10T11:52:44.550Z,99.90
2018-06-10T11:55:13.460Z,99.90
2018-06-10T11:57:42.735Z,99.90
2018-06-10T12:00:11.647Z,99.90
2018-06-10T12:02:40.531Z,99.90
2018-06-10T12:05:09.425Z,99.90
2018-06-10T12:07:38.334Z,99.90
2018-06-10T12:10:07.234Z,99.90
2018-06-10T12:12:36.127Z,99.90
2018-06-10T12:15:05.032Z,99.90
2018-06-10T12:17:33.914Z,99.90
2018-06-10T12:20:02.822Z,99.90
2018-06-10T12:22:31.764Z,99.90
2018-06-10T12:25:00.619Z,99.90
2018-06-10T12:27:29.515Z,99.90
2018-06-10T12:29:58.423Z,99.90
2018-06-10T12:32:27.318Z,99.90
2018-06-10T12:34:56.218Z,99.90
2018-06-10T12:37:25.108Z,99.90
2018-06-10T12:39:54.008Z,99.90
2018-06-10T12:42:22.922Z,99.90
2018-06-10T12:44:51.838Z,99.90
2018-06-10T12:47:20.730Z,99.90
2018-06-10T12:49:49.654Z,99.90
2018-06-10T12:52:18.542Z,99.90
2018-06-10T12:54:47.444Z,99.90
2018-06-10T12:57:16.327Z,99.90
2018-06-10T12:59:45.227Z,99.90
2018-06-10T13:02:14.120Z,99.90
2018-06-10T13:04:43.034Z,99.90
2018-06-10T13:07:12.006Z,99.90
2018-06-10T13:09:40.910Z,99.90
2018-06-10T13:12:10.004Z,99.90
2018-06-10T13:14:39.055Z,99.90
2018-06-10T13:17:07.977Z,99.90
2018-06-10T13:19:36.888Z,99.90
2018-06-10T13:22:06.151Z,99.90
2018-06-10T13:24:35.175Z,99.90
2018-06-10T13:27:04.228Z,99.90
2018-06-10T13:29:33.299Z,99.90
2018-06-10T13:32:02.384Z,99.90
2018-06-10T13:34:31.310Z,99.90
2018-06-10T13:37:00.219Z,99.90
2018-06-10T13:39:29.820Z,99.90
2018-06-10T13:42:00.693Z,99.90
2018-06-10T13:44:29.558Z,99.90
2018-06-10T13:46:58.464Z,99.90
2018-06-10T13:49:27.343Z,99.90
2018-06-10T13:51:56.250Z,99.60
2018-06-10T13:54:25.134Z,98.80
2018-06-10T13:56:54.048Z,99.90
2018-06-10T13:59:22.949Z,99.60
2018-06-10T14:01:51.843Z,98.70
2018-06-10T14:04:20.718Z,99.90
2018-06-10T14:06:49.644Z,99.60
2018-06-10T14:09:18.522Z,99.90
2018-06-10T14:11:47.422Z,99.30
2018-06-10T14:14:16.299Z,99.80
2018-06-10T14:16:45.191Z,99.90
2018-06-10T14:19:14.075Z,99.60
2018-06-10T14:21:43.059Z,99.10
2018-06-10T14:24:11.947Z,98.20
2018-06-10T14:26:40.850Z,98.40
2018-06-10T14:29:09.730Z,99.00
2018-06-10T14:31:38.719Z,99.50
2018-06-10T14:34:07.614Z,99.80
2018-06-10T14:36:36.502Z,99.10
2018-06-10T14:39:07.842Z,98.30
2018-06-10T14:41:36.739Z,98.20
2018-06-10T14:44:05.726Z,98.20
2018-06-10T14:46:34.619Z,99.40
2018-06-10T14:49:03.505Z,99.80
2018-06-10T14:51:32.407Z,99.30
2018-06-10T14:54:01.288Z,98.60
2018-06-10T14:56:30.442Z,98.10
2018-06-10T15:01:28.051Z,97.30
2018-06-10T15:03:56.947Z,96.80
2018-06-10T15:06:25.838Z,95.60
2018-06-10T15:08:54.931Z,96.90
2018-06-10T15:11:23.890Z,96.20
2018-06-10T15:13:52.784Z,95.60
2018-06-10T15:16:21.747Z,96.20
2018-06-10T15:18:50.806Z,96.30
2018-06-10T15:21:19.948Z,96.70
2018-06-10T15:23:48.842Z,97.30
2018-06-10T15:26:17.743Z,96.80
2018-06-10T15:28:46.667Z,96.70
2018-06-10T15:31:17.427Z,97.00
2018-06-10T15:36:18.135Z,97.50
2018-06-10T15:38:47.027Z,96.20
2018-06-10T15:41:15.916Z,96.50
2018-06-10T15:43:44.824Z,95.30
2018-06-10T15:46:13.726Z,96.10
2018-06-10T15:48:42.626Z,96.10
2018-06-10T15:51:11.508Z,97.10
2018-06-10T15:53:40.410Z,97.70
2018-06-10T15:56:09.311Z,97.60
2018-06-10T15:58:38.226Z,98.10
2018-06-10T16:01:07.150Z,98.80
2018-06-10T16:03:36.051Z,98.50
2018-06-10T16:06:04.930Z,98.50
2018-06-10T16:08:33.855Z,97.70
2018-06-10T16:11:03.183Z,97.50
2018-06-10T16:13:32.097Z,97.40
2018-06-10T16:16:00.975Z,97.10
2018-06-10T16:18:29.963Z,97.40
2018-06-10T16:20:58.942Z,97.30
2018-06-10T16:23:27.847Z,97.50
2018-06-10T16:25:56.820Z,97.20
2018-06-10T16:28:25.728Z,97.20
2018-06-10T16:30:54.624Z,97.70
2018-06-10T16:33:23.926Z,97.80
2018-06-10T16:35:52.815Z,98.00
2018-06-10T16:38:21.755Z,98.00
2018-06-10T16:40:50.688Z,97.10
2018-06-10T16:43:19.695Z,97.50
2018-06-10T16:45:48.585Z,96.40
2018-06-10T16:48:17.483Z,96.60
2018-06-10T16:50:46.363Z,97.70
2018-06-10T16:53:15.278Z,97.40
2018-06-10T16:55:44.171Z,97.20
2018-06-10T16:58:13.152Z,96.80
2018-06-10T17:00:42.079Z,96.10
2018-06-10T17:03:10.983Z,96.30
2018-06-10T17:05:40.130Z,95.70
2018-06-10T17:08:09.108Z,95.70
2018-06-10T17:10:37.990Z,95.60
2018-06-10T17:13:06.895Z,96.70
2018-06-10T17:15:35.844Z,97.30
2018-06-10T17:18:04.860Z,97.50
2018-06-10T17:20:33.882Z,97.90
2018-06-10T17:23:02.794Z,97.70
2018-06-10T17:25:31.695Z,98.20
2018-06-10T17:28:00.610Z,97.00
2018-06-10T17:30:29.544Z,96.30
2018-06-10T17:35:28.310Z,97.30
2018-06-10T17:37:57.530Z,96.60
2018-06-10T17:40:26.556Z,96.90
2018-06-10T17:42:55.723Z,96.60
2018-06-10T17:45:24.635Z,96.90
2018-06-10T17:47:53.531Z,96.70
2018-06-10T17:50:22.442Z,96.80
2018-06-10T17:52:51.321Z,96.00
2018-06-10T17:55:20.270Z,95.90
2018-06-10T17:57:49.695Z,95.40
2018-06-10T18:00:18.677Z,96.20
2018-06-10T18:02:47.674Z,96.10
2018-06-10T18:05:16.616Z,96.00
2018-06-10T18:07:45.495Z,96.30
2018-06-10T18:10:14.400Z,96.10
2018-06-10T18:12:43.320Z,96.80
2018-06-10T18:15:12.181Z,96.70
2018-06-10T18:17:41.051Z,96.40
2018-06-10T18:20:09.958Z,97.20
2018-06-10T18:22:38.906Z,97.00
2018-06-10T18:25:10.549Z,97.50
2018-06-10T18:27:42.071Z,97.00
2018-06-10T18:30:12.468Z,97.70
2018-06-10T18:32:41.436Z,98.20
2018-06-10T18:35:10.372Z,97.90
2018-06-10T18:37:39.271Z,98.40
2018-06-10T18:40:08.160Z,98.40
2018-06-10T18:45:05.629Z,99.10
2018-06-10T18:47:34.523Z,99.30
2018-06-10T18:52:32.246Z,99.90
2018-06-10T18:55:01.132Z,99.90
2018-06-10T18:57:30.032Z,99.90
2018-06-10T18:59:58.919Z,99.90
2018-06-10T19:02:27.817Z,99.70
2018-06-10T19:04:56.714Z,99.90
2018-06-10T19:07:25.631Z,99.90
2018-06-10T19:09:54.519Z,99.90
2018-06-10T19:12:23.421Z,99.90
2018-06-10T19:17:20.879Z,99.90
2018-06-10T19:19:49.771Z,99.90
2018-06-10T19:22:18.674Z,99.90
2018-06-10T19:24:47.658Z,99.90
2018-06-10T19:27:16.586Z,99.90
2018-06-10T19:29:45.495Z,99.90
2018-06-10T19:32:14.480Z,99.90
2018-06-10T19:34:43.398Z,99.90
2018-06-10T19:37:12.336Z,99.90
2018-06-10T19:39:41.697Z,99.90
2018-06-10T19:42:10.586Z,99.90
2018-06-10T19:44:39.527Z,99.90
2018-06-10T19:47:08.418Z,99.90
2018-06-10T19:49:37.315Z,99.90
2018-06-10T19:52:06.199Z,99.90
2018-06-10T19:54:35.102Z,99.90
2018-06-10T19:57:03.992Z,99.90
2018-06-10T19:59:32.902Z,99.90
2018-06-10T20:02:01.803Z,99.90
2018-06-10T20:04:30.700Z,99.90
2018-06-10T20:06:59.605Z,99.90
2018-06-10T20:09:28.511Z,99.90
2018-06-10T20:11:57.394Z,99.90
2018-06-10T20:14:26.315Z,99.90
2018-06-10T20:16:55.191Z,99.90
2018-06-10T20:19:24.082Z,99.90
2018-06-10T20:21:52.985Z,99.90
2018-06-10T20:24:21.967Z,99.90
2018-06-10T20:26:50.874Z,99.90
2018-06-10T20:29:19.787Z,99.90
2018-06-10T20:31:48.686Z,99.90
2018-06-10T20:34:17.589Z,99.90
2018-06-10T20:36:46.503Z,99.90
2018-06-10T20:39:15.395Z,99.90
2018-06-10T20:41:44.378Z,99.90
2018-06-10T20:44:13.270Z,99.90
2018-06-10T20:46:42.162Z,99.90
2018-06-10T20:49:11.055Z,99.90
2018-06-10T20:51:39.955Z,99.90
2018-06-10T20:54:08.851Z,99.90
2018-06-10T20:56:37.759Z,99.90
2018-06-10T20:59:06.638Z,99.90
2018-06-10T21:01:35.567Z,99.90
2018-06-10T21:06:33.024Z,99.90
2018-06-10T21:09:01.946Z,99.90
2018-06-10T21:11:30.867Z,99.90
2018-06-10T21:14:00.354Z,99.90
2018-06-10T21:16:29.267Z,99.90
2018-06-10T21:18:58.159Z,99.90
2018-06-10T21:21:27.068Z,99.90
2018-06-10T21:23:55.958Z,99.90
2018-06-10T21:26:24.841Z,99.90
2018-06-10T21:28:53.750Z,99.90
2018-06-10T21:31:22.642Z,99.90
2018-06-10T21:33:51.545Z,99.90
2018-06-10T21:36:20.434Z,99.90
2018-06-10T21:38:49.326Z,99.90
2018-06-10T21:41:18.220Z,99.90
2018-06-10T21:43:47.123Z,99.90
2018-06-10T21:46:16.018Z,99.90
2018-06-10T21:48:44.918Z,99.90
2018-06-10T21:51:13.802Z,99.90
2018-06-10T21:53:42.706Z,99.90
2018-06-10T21:56:11.605Z,99.90
2018-06-10T21:58:40.511Z,99.90
2018-06-10T22:01:09.730Z,99.90
2018-06-10T22:03:38.635Z,99.90
2018-06-10T22:06:07.529Z,99.90
2018-06-10T22:08:36.446Z,99.90
2018-06-10T22:11:05.326Z,99.90
2018-06-10T22:13:34.258Z,99.90
2018-06-10T22:16:03.144Z,99.90
2018-06-10T22:18:32.071Z,99.90
2018-06-10T22:21:00.951Z,99.90
2018-06-10T22:23:29.844Z,99.90
2018-06-10T22:25:58.751Z,99.90
2018-06-10T22:28:27.860Z,99.90
2018-06-10T22:30:56.745Z,99.90
2018-06-10T22:33:25.623Z,99.90
2018-06-10T22:35:54.518Z,99.90
2018-06-10T22:38:23.402Z,99.90
2018-06-10T22:40:52.299Z,99.90
2018-06-10T22:43:21.173Z,99.90
2018-06-10T22:45:50.069Z,99.90
2018-06-10T22:48:18.998Z,99.90
2018-06-10T22:50:47.911Z,99.90
2018-06-10T22:55:32.427Z,99.90
2018-06-10T22:58:01.311Z,99.90
2018-06-10T23:00:30.206Z,99.90
2018-06-10T23:02:59.090Z,99.90
2018-06-10T23:05:28.823Z,99.90
2018-06-10T23:07:57.726Z,99.90
2018-06-10T23:10:26.631Z,99.90
2018-06-10T23:12:55.521Z,99.90
2018-06-10T23:15:24.430Z,99.90
2018-06-10T23:17:53.347Z,99.90
2018-06-10T23:20:22.249Z,99.90
2018-06-10T23:22:51.140Z,99.90
2018-06-10T23:25:20.036Z,99.90
2018-06-10T23:27:48.914Z,99.90
2018-06-10T23:30:17.828Z,99.90
2018-06-10T23:32:46.710Z,99.90
2018-06-10T23:35:15.590Z,99.90
2018-06-10T23:37:44.494Z,99.90
2018-06-10T23:40:13.381Z,99.90
2018-06-10T23:42:42.285Z,99.90
2018-06-10T23:45:11.186Z,99.90
2018-06-10T23:47:40.091Z,99.90
2018-06-10T23:50:08.966Z,99.90
2018-06-10T23:52:37.862Z,99.90
2018-06-10T23:55:06.755Z,99.90
2018-06-10T23:57:35.666Z,99.90
